Time;durP1;ratioP1;P1;durP2;ratioP2;P2;SDS_P1;SDS_P2;PMS_P1;PMS_P2;Temp;Humidity;BMP_temperature;BMP_pressure;BME280_temperature;BME280_humidity;BME280_pressure;Samples;Min_cycle;Max_cycle;Signal;HPM_P1;HPM_P2
2022/08/02 00:01:12;;;;;;;1.25;0.60;;;21.70;58.00;;;;;;2315200;54;21016;-74
2022/08/02 00:03:38;;;;;;;1.73;0.60;;;21.70;58.00;;;;;;2451395;54;21505;-75
2022/08/02 00:06:05;;;;;;;1.65;0.57;;;21.70;58.00;;;;;;2334847;54;21491;-76
2022/08/02 00:08:32;;;;;;;1.80;0.70;;;21.70;58.10;;;;;;2344091;53;21000;-75
2022/08/02 00:10:59;;;;;;;1.73;0.80;;;21.70;58.20;;;;;;2339167;54;21054;-77
2022/08/02 00:13:26;;;;;;;1.20;0.60;;;21.60;58.20;;;;;;2338630;54;20960;-76
2022/08/02 00:15:53;;;;;;;1.92;0.70;;;21.60;58.30;;;;;;2338389;54;21805;-76
2022/08/02 00:18:19;;;;;;;1.70;0.60;;;21.60;58.30;;;;;;2529776;53;20986;-75
2022/08/02 00:20:46;;;;;;;1.30;0.60;;;21.60;58.30;;;;;;2338597;54;21095;-74
2022/08/02 00:23:13;;;;;;;1.30;0.60;;;21.70;58.40;;;;;;2339285;54;20926;-76
2022/08/02 00:25:42;;;;;;;1.98;0.68;;;21.60;58.30;;;;;;2312204;55;20999;-75
2022/08/02 00:28:10;;;;;;;1.48;0.62;;;21.60;58.30;;;;;;2336919;54;20987;-75
2022/08/02 00:30:37;;;;;;;2.85;0.70;;;21.60;58.30;;;;;;2312853;54;20967;-75
2022/08/02 00:33:04;;;;;;;1.55;0.70;;;21.50;58.40;;;;;;2553827;53;21748;-75
2022/08/02 00:35:31;;;;;;;1.70;0.68;;;21.50;58.40;;;;;;2310140;54;20942;-75
2022/08/02 00:37:58;;;;;;;1.30;0.60;;;21.50;58.50;;;;;;2422105;53;21010;-74
2022/08/02 00:40:24;;;;;;;1.27;0.60;;;21.50;58.40;;;;;;2338171;54;20934;-75
2022/08/02 00:43:07;;;;;;;3.03;0.82;;;21.50;58.40;;;;;;2471019;53;20930;-75
2022/08/02 00:45:33;;;;;;;;;;;21.50;58.90;;;;;;2452876;53;20978;-75
2022/08/02 00:48:00;;;;;;;1.50;0.60;;;21.50;58.80;;;;;;2313386;54;20116;-75
2022/08/02 00:50:26;;;;;;;1.77;0.90;;;21.50;58.30;;;;;;2338787;54;21020;-75
2022/08/02 00:52:52;;;;;;;2.00;0.82;;;21.50;58.60;;;;;;2367857;53;20927;-75
2022/08/02 00:55:20;;;;;;;1.85;0.73;;;21.50;58.80;;;;;;2335459;54;21408;-74
2022/08/02 00:57:47;;;;;;;1.35;0.55;;;21.40;58.70;;;;;;2583560;53;20953;-75
2022/08/02 01:00:14;;;;;;;2.78;0.70;;;21.50;58.90;;;;;;2338853;54;21561;-74
2022/08/02 01:02:40;;;;;;;1.52;0.62;;;21.50;58.90;;;;;;2583856;53;20950;-76
2022/08/02 01:05:08;;;;;;;2.00;0.60;;;21.50;58.90;;;;;;2313014;54;20968;-74
2022/08/02 01:07:37;;;;;;;1.98;0.80;;;21.50;58.90;;;;;;2550896;53;21031;-76
2022/08/02 01:10:05;;;;;;;1.50;0.52;;;21.50;58.90;;;;;;2336843;54;21004;-75
2022/08/02 01:12:31;;;;;;;0.73;0.50;;;21.40;58.70;;;;;;2583720;53;20926;-74
2022/08/02 01:14:59;;;;;;;1.10;0.50;;;21.40;58.70;;;;;;2339060;54;20978;-77
2022/08/02 01:17:46;;;;;;;1.40;0.60;;;21.40;58.70;;;;;;2584198;53;21070;-77
2022/08/02 01:20:43;;;;;;;1.02;0.50;;;21.40;59.00;;;;;;2307274;54;21526;-75
2022/08/02 01:23:34;;;;;;;1.50;0.70;;;21.40;58.80;;;;;;2321116;53;21394;-75
2022/08/02 01:26:24;;;;;;;1.15;0.52;;;21.40;58.90;;;;;;2314046;54;21071;-74
2022/08/02 01:29:03;;;;;;;1.30;0.50;;;21.40;58.80;;;;;;2313556;54;21340;-74
2022/08/02 01:31:34;;;;;;;1.35;0.60;;;21.40;58.70;;;;;;2311477;54;20957;-75
2022/08/02 01:36:03;;;;;;;1.67;0.70;;;21.40;58.50;;;;;;2374894;53;21416;-75
2022/08/02 01:38:42;;;;;;;0.77;0.45;;;21.30;58.60;;;;;;2366594;53;20961;-74
2022/08/02 01:41:14;;;;;;;1.30;0.50;;;21.30;58.40;;;;;;2389421;53;20977;-74
2022/08/02 01:43:41;;;;;;;1.10;0.50;;;21.30;58.20;;;;;;2383646;54;20984;-75
2022/08/02 01:46:08;;;;;;;5.78;0.93;;;21.20;58.10;;;;;;2363907;53;21581;-75
2022/08/02 01:48:35;;;;;;;1.15;0.50;;;21.20;58.10;;;;;;2343719;54;20913;-74
2022/08/02 01:51:03;;;;;;;1.52;0.60;;;21.10;58.10;;;;;;2419697;53;21100;-75
2022/08/02 01:53:29;;;;;;;1.00;0.50;;;21.10;58.20;;;;;;2324070;54;21015;-74
2022/08/02 01:55:58;;;;;;;1.37;0.60;;;21.10;58.30;;;;;;2342316;54;20945;-75
2022/08/02 01:58:26;;;;;;;1.80;0.70;;;21.00;58.40;;;;;;2344323;53;20941;-75
2022/08/02 02:00:55;;;;;;;1.30;0.60;;;21.00;58.50;;;;;;2537172;53;21936;-74
2022/08/02 02:03:23;;;;;;;1.77;0.52;;;21.00;58.50;;;;;;2344116;53;20986;-75
2022/08/02 02:05:50;;;;;;;1.30;0.60;;;21.00;58.50;;;;;;2349940;53;20947;-76
2022/08/02 02:08:20;;;;;;;2.97;0.70;;;20.90;58.40;;;;;;2340359;53;20937;-75
2022/08/02 02:10:46;;;;;;;1.83;0.65;;;20.90;58.50;;;;;;2587939;53;20984;-74
2022/08/02 02:13:13;;;;;;;1.65;0.57;;;20.80;59.00;;;;;;2338396;53;21512;-74
2022/08/02 02:15:42;;;;;;;1.50;0.70;;;20.80;58.40;;;;;;2345262;53;20945;-76
2022/08/02 02:18:09;;;;;;;1.12;0.55;;;20.80;58.50;;;;;;2342105;54;20943;-74
2022/08/02 02:20:37;;;;;;;1.20;0.50;;;20.80;58.50;;;;;;2588285;53;20933;-75
2022/08/02 02:23:04;;;;;;;1.25;0.68;;;20.80;58.60;;;;;;2344838;53;20969;-74
2022/08/02 02:25:30;;;;;;;1.37;0.60;;;20.80;58.60;;;;;;2380848;53;21032;-75
2022/08/02 02:28:01;;;;;;;1.30;0.50;;;20.80;58.60;;;;;;2344278;54;21032;-76
2022/08/02 02:30:28;;;;;;;1.40;0.63;;;20.70;58.60;;;;;;2579818;53;21116;-74
2022/08/02 02:32:56;;;;;;;2.22;0.60;;;20.70;58.50;;;;;;2408903;53;20982;-75
2022/08/02 02:35:23;;;;;;;1.12;0.62;;;20.70;58.50;;;;;;2406181;54;21070;-75
2022/08/02 02:37:49;;;;;;;1.60;0.70;;;20.70;58.40;;;;;;2337134;54;20954;-75
2022/08/02 02:40:15;;;;;;;1.20;0.57;;;20.60;58.40;;;;;;2344223;54;20933;-74
2022/08/02 02:42:43;;;;;;;1.37;0.60;;;20.60;58.40;;;;;;2346750;54;21000;-75
2022/08/02 02:45:10;;;;;;;1.83;0.60;;;20.60;58.40;;;;;;2338059;54;21268;-74
2022/08/02 02:47:37;;;;;;;0.73;0.40;;;20.50;58.40;;;;;;2343628;54;20997;-75
2022/08/02 02:50:04;;;;;;;0.93;0.60;;;20.50;58.50;;;;;;2343632;54;20920;-74
2022/08/02 02:52:31;;;;;;;1.80;0.77;;;20.50;58.60;;;;;;2344333;53;20961;-74
2022/08/02 02:54:57;;;;;;;1.95;0.70;;;20.50;58.60;;;;;;2528602;53;20924;-74
2022/08/02 02:57:24;;;;;;;2.03;0.68;;;20.50;58.60;;;;;;2422122;53;20945;-74
2022/08/02 02:59:53;;;;;;;1.23;0.52;;;20.40;58.60;;;;;;2553692;53;20961;-75
2022/08/02 03:02:20;;;;;;;2.00;0.50;;;20.40;58.70;;;;;;2329207;54;21007;-75
2022/08/02 03:04:46;;;;;;;2.80;0.80;;;20.40;58.80;;;;;;2332856;54;21029;-75
2022/08/02 03:07:12;;;;;;;1.87;0.75;;;20.40;58.90;;;;;;2319420;54;20931;-75
2022/08/02 03:09:39;;;;;;;1.55;0.65;;;20.40;58.90;;;;;;2348687;53;20936;-75
2022/08/02 03:12:07;;;;;;;1.42;0.60;;;20.40;58.90;;;;;;2346466;53;21004;-76
2022/08/02 03:14:34;;;;;;;1.12;0.43;;;20.40;59.00;;;;;;2339291;54;20933;-74
2022/08/02 03:17:00;;;;;;;1.08;0.47;;;20.40;58.90;;;;;;2344003;54;20933;-75
2022/08/02 03:19:27;;;;;;;2.28;0.60;;;20.30;58.90;;;;;;2343441;54;21001;-75
2022/08/02 03:21:54;;;;;;;0.98;0.50;;;20.30;58.90;;;;;;2345278;54;20992;-75
2022/08/02 03:24:20;;;;;;;2.45;0.80;;;20.30;59.50;;;;;;2324698;54;20971;-74
2022/08/02 03:26:46;;;;;;;0.95;0.40;;;20.30;59.00;;;;;;2414830;54;21233;-75
2022/08/02 03:29:13;;;;;;;2.42;0.60;;;20.30;59.10;;;;;;2321577;54;20997;-76
2022/08/02 03:31:40;;;;;;;2.25;0.52;;;20.30;59.10;;;;;;2320187;54;20979;-75
2022/08/02 03:34:07;;;;;;;1.70;0.70;;;20.30;59.10;;;;;;2413933;53;20958;-75
2022/08/02 03:36:33;;;;;;;1.52;0.50;;;20.20;59.00;;;;;;2343288;55;21699;-75
2022/08/02 03:38:59;;;;;;;1.45;0.62;;;20.20;59.00;;;;;;2344210;55;20954;-74
2022/08/02 03:41:26;;;;;;;2.70;0.70;;;20.20;59.10;;;;;;2344323;55;20930;-74
2022/08/02 03:43:52;;;;;;;1.15;0.55;;;20.20;59.20;;;;;;2349327;53;20991;-74
2022/08/02 03:46:20;;;;;;;1.80;0.55;;;20.20;59.20;;;;;;2344478;54;21041;-77
2022/08/02 03:48:47;;;;;;;2.60;0.77;;;20.20;59.30;;;;;;2342825;54;21790;-74
2022/08/02 03:51:13;;;;;;;4.12;1.00;;;20.20;59.20;;;;;;2344286;55;20957;-75
2022/08/02 03:53:40;;;;;;;2.00;0.68;;;20.20;59.20;;;;;;2344069;54;20982;-75
2022/08/02 03:56:07;;;;;;;1.48;0.60;;;20.20;59.30;;;;;;2374432;53;20990;-74
2022/08/02 03:58:35;;;;;;;1.77;0.60;;;20.20;59.20;;;;;;2344924;54;21002;-74
2022/08/02 04:01:05;;;;;;;1.60;0.50;;;20.20;59.20;;;;;;2330450;54;20950;-76
2022/08/02 04:03:31;;;;;;;1.20;0.50;;;20.20;59.20;;;;;;2338799;54;21022;-77
2022/08/02 04:06:00;;;;;;;1.42;0.60;;;20.20;59.10;;;;;;2344045;54;20926;-75
2022/08/02 04:08:27;;;;;;;2.35;0.70;;;20.20;59.20;;;;;;2459257;54;20962;-76
2022/08/02 04:13:40;;;;;;;2.05;0.70;;;20.20;59.20;;;;;;2334675;54;20950;-76
2022/08/02 04:16:23;;;;;;;1.12;0.50;;;20.20;59.20;;;;;;2344161;55;20959;-77
2022/08/02 04:18:57;;;;;;;1.58;0.62;;;20.20;59.40;;;;;;2590837;53;20882;-76
2022/08/02 04:21:24;;;;;;;1.40;0.57;;;20.10;59.40;;;;;;2343384;55;20897;-76
2022/08/02 04:23:51;;;;;;;2.08;0.80;;;20.10;59.20;;;;;;2325255;54;20990;-76
2022/08/02 04:26:17;;;;;;;1.23;0.52;;;20.10;59.30;;;;;;2343687;54;20942;-74
2022/08/02 04:28:44;;;;;;;1.90;0.68;;;20.10;59.30;;;;;;2418709;53;20934;-74
2022/08/02 04:31:10;;;;;;;1.27;0.60;;;20.10;59.30;;;;;;2589974;53;20987;-76
2022/08/02 04:33:37;;;;;;;1.50;0.70;;;20.10;59.40;;;;;;2330346;54;20998;-74
2022/08/02 04:36:05;;;;;;;1.48;0.65;;;20.10;59.40;;;;;;2339343;54;20990;-74
2022/08/02 04:38:32;;;;;;;3.15;0.60;;;20.10;59.40;;;;;;2356448;53;20950;-74
2022/08/02 04:40:58;;;;;;;2.80;0.62;;;20.10;59.50;;;;;;2324883;54;21674;-76
2022/08/02 04:43:25;;;;;;;1.60;0.70;;;20.10;59.60;;;;;;2344316;54;21015;-76
2022/08/02 04:45:52;;;;;;;2.58;0.77;;;20.10;59.60;;;;;;2328363;54;21033;-74
2022/08/02 04:48:19;;;;;;;1.62;0.70;;;20.10;59.80;;;;;;2339025;54;20935;-75
2022/08/02 04:50:46;;;;;;;1.65;0.75;;;20.10;59.80;;;;;;2323482;54;21228;-75
2022/08/02 04:53:12;;;;;;;1.40;0.50;;;20.10;59.90;;;;;;2481431;53;21018;-75
2022/08/02 04:55:39;;;;;;;1.55;0.57;;;20.10;59.90;;;;;;2551728;53;21722;-75
2022/08/02 04:58:05;;;;;;;1.40;0.50;;;20.20;60.00;;;;;;2344964;55;21780;-74
2022/08/02 05:00:39;;;;;;;1.55;0.50;;;20.20;60.00;;;;;;2338817;54;21067;-73
2022/08/02 05:03:08;;;;;;;2.12;0.77;;;20.20;60.00;;;;;;2373287;54;20937;-74
2022/08/02 05:05:34;;;;;;;2.95;0.60;;;20.20;60.10;;;;;;2451223;53;20951;-76
2022/08/02 05:08:01;;;;;;;1.77;0.65;;;20.20;60.00;;;;;;2338506;54;20978;-74
2022/08/02 05:10:27;;;;;;;1.90;0.85;;;20.30;60.20;;;;;;2330098;54;21019;-75
2022/08/02 05:12:54;;;;;;;1.65;0.80;;;20.30;60.30;;;;;;2340307;54;20991;-75
2022/08/02 05:15:20;;;;;;;2.17;0.70;;;20.30;60.50;;;;;;2410467;54;21001;-75
2022/08/02 05:17:47;;;;;;;3.70;1.00;;;20.40;60.80;;;;;;2336083;53;20947;-75
2022/08/02 05:20:18;;;;;;;1.30;0.70;;;20.40;60.80;;;;;;2339729;54;20950;-74
2022/08/02 05:22:44;;;;;;;2.42;1.05;;;20.40;61.10;;;;;;2325408;55;20950;-75
2022/08/02 05:25:12;;;;;;;1.55;0.65;;;20.40;60.90;;;;;;2343657;53;20986;-75
2022/08/02 05:27:38;;;;;;;1.37;0.60;;;20.50;61.00;;;;;;2590627;53;20938;-75
2022/08/02 05:30:05;;;;;;;1.52;0.68;;;20.50;61.00;;;;;;2344207;55;20958;-75
2022/08/02 05:32:32;;;;;;;1.50;0.70;;;20.60;61.10;;;;;;2358735;53;20970;-74
2022/08/02 05:35:00;;;;;;;1.87;0.68;;;20.60;61.10;;;;;;2344586;55;21455;-77
2022/08/02 05:37:28;;;;;;;1.73;0.80;;;20.70;61.30;;;;;;2344547;55;21025;-74
2022/08/02 05:39:55;;;;;;;1.90;0.77;;;20.70;61.30;;;;;;2342915;54;21024;-74
2022/08/02 05:42:24;;;;;;;1.67;0.73;;;20.80;61.50;;;;;;2347572;54;20942;-76
2022/08/02 05:44:51;;;;;;;1.23;0.60;;;20.80;61.70;;;;;;2322958;54;20978;-76
2022/08/02 05:47:17;;;;;;;1.50;0.70;;;20.80;61.60;;;;;;2324316;54;20983;-75
2022/08/02 05:49:44;;;;;;;1.70;0.70;;;20.90;61.80;;;;;;2323044;55;21419;-75
2022/08/02 05:52:18;;;;;;;2.25;0.80;;;20.90;61.80;;;;;;2591386;53;20985;-76
2022/08/02 05:55:12;;;;;;;1.62;0.70;;;21.00;62.00;;;;;;2343821;54;21018;-76
2022/08/02 05:58:01;;;;;;;2.50;0.60;;;21.10;62.40;;;;;;2404251;53;20989;-75
2022/08/02 06:00:34;;;;;;;1.30;0.55;;;21.20;62.60;;;;;;2344671;54;21912;-74
2022/08/02 06:03:47;;;;;;;1.55;0.70;;;21.20;62.00;;;;;;2344474;54;21499;-76
2022/08/02 06:06:24;;;;;;;1.33;0.62;;;21.30;62.60;;;;;;2344775;54;21426;-75
2022/08/02 06:08:57;;;;;;;1.83;0.80;;;21.30;61.80;;;;;;2577932;53;20962;-76
2022/08/02 06:11:24;;;;;;;1.35;0.68;;;21.30;62.10;;;;;;2334561;54;20950;-75
2022/08/02 06:13:53;;;;;;;2.05;0.88;;;21.40;62.00;;;;;;2344812;55;20946;-75
2022/08/02 06:16:20;;;;;;;2.35;0.90;;;21.50;62.20;;;;;;2342653;54;21051;-76
2022/08/02 06:18:47;;;;;;;2.53;0.93;;;21.50;62.10;;;;;;2468140;54;21451;-73
2022/08/02 06:21:15;;;;;;;2.87;0.82;;;21.50;62.10;;;;;;2320358;54;21010;-75
2022/08/02 06:23:41;;;;;;;1.23;0.60;;;21.60;62.20;;;;;;2343498;54;21448;-76
2022/08/02 06:26:09;;;;;;;1.80;0.73;;;21.60;62.20;;;;;;2344426;55;20966;-75
2022/08/02 06:28:36;;;;;;;2.00;0.90;;;21.70;62.30;;;;;;2344366;55;21757;-75
2022/08/02 06:31:06;;;;;;;1.67;0.77;;;21.70;62.30;;;;;;2572063;53;21391;-76
2022/08/02 06:33:33;;;;;;;1.52;0.65;;;21.80;62.30;;;;;;2344260;55;21021;-75
2022/08/02 06:36:06;;;;;;;1.55;0.70;;;21.70;62.10;;;;;;2343686;54;20950;-75
2022/08/02 06:38:37;;;;;;;1.60;0.75;;;21.90;62.50;;;;;;2344308;54;21773;-76
2022/08/02 06:41:06;;;;;;;4.22;1.35;;;21.90;62.40;;;;;;2344979;54;20943;-75
2022/08/02 06:44:33;;;;;;;1.77;0.70;;;22.00;62.40;;;;;;2591228;53;21010;-75
2022/08/02 06:47:16;;;;;;;1.90;0.80;;;22.00;63.10;;;;;;2344799;54;20970;-75
2022/08/02 06:49:43;;;;;;;2.00;0.80;;;22.10;62.40;;;;;;2321885;54;20943;-75
2022/08/02 06:52:10;;;;;;;2.05;0.80;;;22.10;62.60;;;;;;2494041;54;20918;-75
2022/08/02 06:54:37;;;;;;;1.85;0.80;;;22.20;62.70;;;;;;2323770;54;20976;-75
2022/08/02 06:57:08;;;;;;;1.85;0.80;;;22.20;62.60;;;;;;2344753;54;21005;-75
2022/08/02 06:59:34;;;;;;;2.05;0.95;;;22.20;62.80;;;;;;2425268;53;21023;-74
2022/08/02 07:02:02;;;;;;;2.53;0.82;;;22.30;62.70;;;;;;2328568;54;20990;-75
2022/08/02 07:04:29;;;;;;;2.08;0.80;;;22.40;62.80;;;;;;2344466;55;20986;-75
2022/08/02 07:06:56;;;;;;;3.20;1.10;;;22.40;62.80;;;;;;2344676;55;21546;-75
2022/08/02 07:09:23;;;;;;;2.00;0.90;;;22.50;63.00;;;;;;2324169;54;20935;-76
2022/08/02 07:11:49;;;;;;;1.92;1.00;;;22.50;63.10;;;;;;2344371;55;20927;-73
2022/08/02 07:14:15;;;;;;;4.10;0.90;;;22.60;63.10;;;;;;2324532;54;21022;-74
2022/08/02 07:16:42;;;;;;;2.28;0.80;;;22.60;63.30;;;;;;2418862;53;21526;-75
2022/08/02 07:19:08;;;;;;;3.87;1.05;;;22.70;63.50;;;;;;2329839;54;21832;-75
2022/08/02 07:21:34;;;;;;;2.45;1.00;;;22.80;63.60;;;;;;2338360;54;20946;-75
2022/08/02 07:24:01;;;;;;;1.65;0.80;;;22.90;63.90;;;;;;2344779;54;21376;-75
2022/08/02 07:26:27;;;;;;;2.33;0.90;;;22.90;63.90;;;;;;2310966;55;20949;-75
2022/08/02 07:28:54;;;;;;;2.33;0.90;;;23.00;64.00;;;;;;2324224;54;20927;-75
2022/08/02 07:31:23;;;;;;;2.50;1.10;;;23.10;64.10;;;;;;2337219;54;20966;-75
2022/08/02 07:33:49;;;;;;;2.80;1.12;;;23.20;64.30;;;;;;2344146;55;20930;-75
2022/08/02 07:36:16;;;;;;;2.35;0.90;;;23.20;64.10;;;;;;2344281;54;21022;-75
2022/08/02 07:38:43;;;;;;;1.98;0.85;;;23.30;64.20;;;;;;2343863;55;20946;-74
2022/08/02 07:41:09;;;;;;;1.95;0.88;;;23.40;64.20;;;;;;2344962;54;20953;-75
2022/08/02 07:43:36;;;;;;;2.08;1.08;;;23.50;64.20;;;;;;2350746;53;21029;-78
2022/08/02 07:46:02;;;;;;;2.95;0.93;;;23.60;64.20;;;;;;2344257;54;21061;-73
2022/08/02 07:48:29;;;;;;;2.60;1.20;;;23.70;64.10;;;;;;2495312;53;21003;-75
2022/08/02 07:50:56;;;;;;;2.60;0.98;;;23.80;64.00;;;;;;2344579;55;21058;-75
2022/08/02 07:53:22;;;;;;;2.28;0.95;;;23.80;63.90;;;;;;2344176;55;21022;-74
2022/08/02 07:55:50;;;;;;;1.75;0.90;;;23.90;63.90;;;;;;2343757;55;20952;-77
2022/08/02 07:58:17;;;;;;;2.30;1.10;;;24.00;63.80;;;;;;2325085;54;20943;-76
2022/08/02 08:00:43;;;;;;;2.12;1.00;;;24.10;63.70;;;;;;2344220;54;20939;-78
2022/08/02 08:03:10;;;;;;;2.20;0.82;;;24.10;63.50;;;;;;2402411;53;20954;-75
2022/08/02 08:05:36;;;;;;;2.62;1.00;;;24.20;63.50;;;;;;2324747;54;21789;-76
2022/08/02 08:08:04;;;;;;;2.03;0.90;;;24.30;63.40;;;;;;2376459;53;20962;-75
2022/08/02 08:10:31;;;;;;;2.83;0.93;;;24.30;63.30;;;;;;2308468;54;20983;-77
2022/08/02 08:13:01;;;;;;;1.67;0.80;;;24.40;63.20;;;;;;2390788;54;21364;-77
2022/08/02 08:15:27;;;;;;;2.12;1.00;;;24.50;63.20;;;;;;2332102;54;21022;-76
2022/08/02 08:17:54;;;;;;;2.03;1.00;;;24.60;63.00;;;;;;2330953;54;21578;-75
2022/08/02 08:20:20;;;;;;;2.50;1.00;;;24.60;62.70;;;;;;2325681;54;21529;-75
2022/08/02 08:22:47;;;;;;;1.70;0.80;;;24.70;62.40;;;;;;2344428;54;21036;-75
2022/08/02 08:25:13;;;;;;;1.80;0.80;;;24.70;62.30;;;;;;2343798;55;20930;-75
2022/08/02 08:27:47;;;;;;;2.37;0.82;;;24.80;62.10;;;;;;2344195;55;21692;-74
2022/08/02 08:30:14;;;;;;;1.98;0.90;;;24.80;61.90;;;;;;2480166;53;20939;-76
2022/08/02 08:32:41;;;;;;;2.25;0.90;;;24.80;61.80;;;;;;2344709;54;20970;-76
2022/08/02 08:35:08;;;;;;;2.92;0.90;;;24.90;61.80;;;;;;2591302;53;20970;-73
2022/08/02 08:37:35;;;;;;;1.83;0.80;;;24.90;61.60;;;;;;2344138;55;20926;-74
2022/08/02 08:40:06;;;;;;;3.37;0.95;;;24.90;61.40;;;;;;2343136;55;20962;-73
2022/08/02 08:42:34;;;;;;;1.83;0.90;;;25.00;61.30;;;;;;2326120;54;20965;-76
2022/08/02 08:45:03;;;;;;;2.00;0.95;;;25.00;61.20;;;;;;2356171;53;21006;-75
2022/08/02 08:47:38;;;;;;;1.90;0.80;;;25.10;61.40;;;;;;2338765;54;20947;-74
2022/08/02 08:50:12;;;;;;;2.37;1.00;;;25.10;61.40;;;;;;2445947;53;20977;-75
2022/08/02 08:53:47;;;;;;;2.62;1.23;;;25.10;61.30;;;;;;2590219;53;20942;-73
2022/08/02 08:56:14;;;;;;;1.30;0.62;;;25.20;61.20;;;;;;2525426;54;21015;-75
2022/08/02 08:58:42;;;;;;;2.10;0.82;;;25.30;61.10;;;;;;2301837;55;20937;-73
2022/08/02 09:01:09;;;;;;;1.70;0.90;;;25.30;61.00;;;;;;2531798;53;20991;-74
2022/08/02 09:03:35;;;;;;;2.17;0.85;;;25.40;61.20;;;;;;2324130;53;21547;-74
2022/08/02 09:06:02;;;;;;;2.72;0.90;;;25.40;61.10;;;;;;2338178;54;22036;-74
2022/08/02 09:08:28;;;;;;;2.08;1.00;;;25.50;61.00;;;;;;2502941;53;20950;-73
2022/08/02 09:10:55;;;;;;;2.30;0.90;;;25.60;61.00;;;;;;2340008;54;20998;-73
2022/08/02 09:13:29;;;;;;;1.83;0.80;;;25.60;60.80;;;;;;2364883;54;20978;-75
2022/08/02 09:15:57;;;;;;;2.30;0.90;;;25.70;60.70;;;;;;2343775;55;20931;-75
2022/08/02 09:18:42;;;;;;;2.95;1.08;;;25.70;60.50;;;;;;2341641;54;21813;-73
2022/08/02 09:21:08;;;;;;;2.03;0.98;;;25.80;60.60;;;;;;2441145;54;21463;-73
2022/08/02 09:23:43;;;;;;;1.85;0.90;;;25.90;60.30;;;;;;2343681;55;20999;-76
2022/08/02 09:26:13;;;;;;;2.72;1.00;;;25.90;59.80;;;;;;2408053;53;21474;-75
2022/08/02 09:28:41;;;;;;;2.67;1.17;;;25.90;59.70;;;;;;2343323;55;20943;-74
2022/08/02 09:31:12;;;;;;;2.58;1.10;;;26.00;59.70;;;;;;2333980;54;21635;-73
2022/08/02 09:33:40;;;;;;;2.10;1.02;;;26.00;59.40;;;;;;2322943;54;20993;-74
2022/08/02 09:36:10;;;;;;;1.67;0.80;;;26.10;59.10;;;;;;2549834;53;21439;-74
2022/08/02 09:38:37;;;;;;;1.67;0.80;;;26.10;58.90;;;;;;2343869;55;20954;-74
2022/08/02 09:41:18;;;;;;;2.12;1.00;;;26.20;58.90;;;;;;2589490;53;20966;-74
2022/08/02 09:43:45;;;;;;;1.50;0.80;;;26.20;58.60;;;;;;2344338;55;20937;-74
2022/08/02 09:46:19;;;;;;;2.05;0.85;;;26.30;58.60;;;;;;2337294;54;21593;-74
2022/08/02 09:48:51;;;;;;;2.05;0.90;;;26.30;58.60;;;;;;2318467;54;20949;-74
2022/08/02 09:51:38;;;;;;;2.15;0.85;;;26.30;58.40;;;;;;2581970;53;20990;-75
2022/08/02 09:54:08;;;;;;;2.58;1.08;;;26.40;58.00;;;;;;2344646;54;21431;-72
2022/08/02 09:56:43;;;;;;;2.10;0.93;;;26.30;58.10;;;;;;2590072;53;20995;-75
2022/08/02 09:59:10;;;;;;;2.80;1.30;;;26.40;58.10;;;;;;2325797;54;20951;-74
2022/08/02 10:01:36;;;;;;;4.68;1.62;;;26.40;58.30;;;;;;2370933;53;21055;-74
2022/08/02 10:04:05;;;;;;;2.40;1.10;;;26.50;58.50;;;;;;2328449;54;21038;-74
2022/08/02 10:06:32;;;;;;;2.33;0.98;;;26.50;58.50;;;;;;2344389;54;20982;-74
2022/08/02 10:08:59;;;;;;;1.70;0.90;;;26.60;58.30;;;;;;2344630;55;21574;-73
2022/08/02 10:11:26;;;;;;;1.75;0.80;;;26.60;58.10;;;;;;2445360;53;20977;-75
2022/08/02 10:13:58;;;;;;;2.20;1.00;;;26.60;57.90;;;;;;2344723;54;20938;-74
2022/08/02 10:16:25;;;;;;;1.77;0.80;;;26.70;57.90;;;;;;2344118;55;20934;-73
2022/08/02 10:18:54;;;;;;;1.87;0.90;;;26.70;58.00;;;;;;2590726;53;21008;-74
2022/08/02 10:21:48;;;;;;;1.75;0.70;;;26.80;58.10;;;;;;2590522;53;20954;-75
2022/08/02 10:24:16;;;;;;;;;;;26.80;57.50;;;;;;2347446;55;21451;-74
2022/08/02 10:26:43;;;;;;;1.85;0.80;;;26.90;57.60;;;;;;2589787;53;20127;-73
2022/08/02 10:29:16;;;;;;;2.85;0.90;;;26.90;57.60;;;;;;2345231;54;21018;-73
2022/08/02 10:32:48;;;;;;;1.67;0.90;;;26.90;57.10;;;;;;2589957;53;20911;-75
2022/08/02 10:35:17;;;;;;;1.33;0.62;;;27.00;57.20;;;;;;2342612;54;21126;-74
2022/08/02 10:37:43;;;;;;;1.50;0.70;;;27.10;56.90;;;;;;2367604;53;20910;-74
2022/08/02 10:40:21;;;;;;;2.35;0.88;;;27.10;56.60;;;;;;2344023;55;21094;-73
2022/08/02 10:42:49;;;;;;;1.40;0.60;;;27.10;56.40;;;;;;2360327;53;21423;-74
2022/08/02 10:45:17;;;;;;;2.10;1.00;;;27.20;56.30;;;;;;2343364;54;20965;-75
2022/08/02 10:48:10;;;;;;;1.58;0.80;;;27.20;56.20;;;;;;2343909;55;21823;-73
2022/08/02 10:51:56;;;;;;;1.98;0.90;;;27.30;55.80;;;;;;2348777;54;20997;-74
2022/08/02 10:54:24;;;;;;;1.40;0.80;;;27.40;55.60;;;;;;2406775;53;21787;-73
2022/08/02 10:56:52;;;;;;;2.15;0.95;;;27.40;55.80;;;;;;2340453;54;21507;-73
2022/08/02 10:59:32;;;;;;;1.45;0.70;;;27.40;55.70;;;;;;2359646;53;21027;-73
2022/08/02 11:02:01;;;;;;;1.62;0.80;;;27.50;55.40;;;;;;2364812;53;20954;-73
2022/08/02 11:04:32;;;;;;;2.03;0.88;;;27.50;55.50;;;;;;2420673;53;21009;-74
2022/08/02 11:08:50;;;;;;;1.55;0.70;;;27.60;55.40;;;;;;2343301;55;21001;-72
2022/08/02 11:11:18;;;;;;;2.15;0.62;;;27.70;55.10;;;;;;2432350;53;21015;-73
2022/08/02 11:14:07;;;;;;;1.52;0.73;;;27.80;55.10;;;;;;2333699;54;21443;-73
2022/08/02 11:17:11;;;;;;;2.12;0.80;;;27.80;54.80;;;;;;2588296;53;21014;-73
2022/08/02 11:20:15;;;;;;;5.72;0.90;;;27.90;54.80;;;;;;2344335;54;21345;-75
2022/08/02 11:22:42;;;;;;;1.77;0.80;;;27.90;54.40;;;;;;2388819;53;21037;-75
2022/08/02 11:27:02;;;;;;;2.20;0.80;;;28.00;54.80;;;;;;2343615;55;20962;-74
2022/08/02 11:29:49;;;;;;;2.30;0.90;;;28.10;54.40;;;;;;2589872;53;21877;-73
2022/08/02 11:32:23;;;;;;;2.58;0.90;;;28.10;54.00;;;;;;2344277;54;21443;-74
2022/08/02 11:34:51;;;;;;;1.90;0.80;;;28.10;54.20;;;;;;2344042;55;20942;-73
2022/08/02 11:38:19;;;;;;;1.42;0.60;;;28.20;54.20;;;;;;2344625;55;21029;-73
2022/08/02 11:40:47;;;;;;;1.52;0.70;;;28.30;53.90;;;;;;2589871;53;20939;-72
2022/08/02 11:43:20;;;;;;;1.95;0.90;;;28.30;53.90;;;;;;2590754;53;20953;-74
2022/08/02 11:45:48;;;;;;;2.03;0.80;;;28.40;53.60;;;;;;2584659;53;20959;-74
2022/08/02 11:48:28;;;;;;;2.65;1.00;;;28.40;53.60;;;;;;2308096;55;20994;-73
2022/08/02 11:52:00;;;;;;;1.62;0.70;;;28.40;53.40;;;;;;2487096;53;21049;-74
2022/08/02 11:54:30;;;;;;;2.37;0.90;;;28.50;53.20;;;;;;2333929;54;20932;-73
2022/08/02 11:57:13;;;;;;;1.87;0.90;;;28.60;53.30;;;;;;2564562;53;20933;-72
2022/08/02 11:59:45;;;;;;;1.23;0.62;;;28.60;52.60;;;;;;2332844;54;20970;-74
2022/08/02 12:02:12;;;;;;;1.55;0.65;;;28.60;53.10;;;;;;2564772;53;20987;-75
2022/08/02 12:04:38;;;;;;;1.80;0.80;;;28.70;52.80;;;;;;2352911;54;20950;-76
2022/08/02 12:07:06;;;;;;;1.90;0.90;;;28.80;52.60;;;;;;2588763;53;21009;-75
2022/08/02 12:09:33;;;;;;;1.85;0.77;;;28.80;52.40;;;;;;2343385;54;21006;-73
2022/08/02 12:12:01;;;;;;;1.42;0.60;;;28.90;52.40;;;;;;2591325;53;21681;-75
2022/08/02 12:14:29;;;;;;;1.95;0.70;;;29.00;52.40;;;;;;2426706;53;21673;-73
2022/08/02 12:19:44;;;;;;;1.65;0.60;;;29.10;51.90;;;;;;2345196;54;20942;-74
2022/08/02 12:22:24;;;;;;;1.48;0.70;;;29.20;52.00;;;;;;2359290;53;20939;-73
2022/08/02 12:24:52;;;;;;;1.45;0.60;;;29.20;51.30;;;;;;2430458;53;20965;-73
2022/08/02 12:27:37;;;;;;;1.73;0.68;;;29.30;51.50;;;;;;2384201;53;20951;-75
2022/08/02 12:30:14;;;;;;;1.23;0.60;;;29.40;50.60;;;;;;2340957;54;21041;-73
2022/08/02 12:32:41;;;;;;;1.50;0.60;;;29.40;50.50;;;;;;2496179;53;21738;-72
2022/08/02 12:35:15;;;;;;;1.58;0.70;;;29.40;50.70;;;;;;2335528;54;20970;-70
2022/08/02 12:37:45;;;;;;;1.48;0.70;;;29.50;50.30;;;;;;2409934;53;20934;-74
2022/08/02 12:41:14;;;;;;;1.40;0.60;;;29.60;50.60;;;;;;2553558;53;21034;-73
2022/08/02 12:43:42;;;;;;;1.58;0.60;;;29.70;50.40;;;;;;2507342;53;21111;-71
2022/08/02 12:46:14;;;;;;;2.25;0.68;;;29.70;50.30;;;;;;2402301;54;20966;-71
2022/08/02 12:48:41;;;;;;;1.65;0.70;;;29.80;49.40;;;;;;2524232;53;20970;-73
2022/08/02 12:51:37;;;;;;;1.73;0.55;;;29.80;49.70;;;;;;2344821;54;20950;-71
2022/08/02 12:54:14;;;;;;;1.50;0.60;;;29.90;48.80;;;;;;2366167;53;20936;-71
2022/08/02 12:56:41;;;;;;;1.08;0.65;;;29.90;48.90;;;;;;2336264;54;21033;-71
2022/08/02 12:59:08;;;;;;;1.35;0.60;;;30.00;49.40;;;;;;2356770;53;20949;-73
2022/08/02 13:01:35;;;;;;;1.50;0.70;;;30.00;49.30;;;;;;2341632;54;20975;-71
2022/08/02 13:04:05;;;;;;;1.40;0.62;;;30.10;48.90;;;;;;2347886;54;21840;-73
2022/08/02 13:06:32;;;;;;;1.50;0.60;;;30.10;48.40;;;;;;2317164;54;21944;-71
2022/08/02 13:09:14;;;;;;;1.37;0.68;;;30.20;48.20;;;;;;2558097;54;21042;-70
2022/08/02 13:11:41;;;;;;;2.85;0.70;;;30.20;47.50;;;;;;2317340;54;20946;-70
2022/08/02 13:14:08;;;;;;;1.15;0.50;;;30.20;47.70;;;;;;2317512;54;21018;-72
2022/08/02 13:16:35;;;;;;;1.40;0.57;;;30.30;47.40;;;;;;2408479;54;20959;-72
2022/08/02 13:19:02;;;;;;;1.48;0.70;;;30.30;47.20;;;;;;2364326;54;20963;-71